sensor_id;sensor_type;location;lat;lon;timestamp;temperature;humidity
78463;SHT31;67756;51.982;5.648;2023-02-21T00:02:22;11.5;72.3
78463;SHT31;67756;51.982;5.648;2023-02-21T00:05:08;11.5;72.3
78463;SHT31;67756;51.982;5.648;2023-02-21T00:07:54;11.5;72.6
78463;SHT31;67756;51.982;5.648;2023-02-21T00:10:40;11.5;72.5
78463;SHT31;67756;51.982;5.648;2023-02-21T00:13:26;11.5;72.5
78463;SHT31;67756;51.982;5.648;2023-02-21T00:16:14;11.5;72.9
78463;SHT31;67756;51.982;5.648;2023-02-21T00:19:01;11.5;72.6
78463;SHT31;67756;51.982;5.648;2023-02-21T00:21:47;11.5;72.9
78463;SHT31;67756;51.982;5.648;2023-02-21T00:24:32;11.5;72.6
78463;SHT31;67756;51.982;5.648;2023-02-21T00:27:18;11.5;72.7
78463;SHT31;67756;51.982;5.648;2023-02-21T00:30:06;11.5;72.8
78463;SHT31;67756;51.982;5.648;2023-02-21T00:32:52;11.5;72.7
78463;SHT31;67756;51.982;5.648;2023-02-21T00:35:38;11.5;72.5
78463;SHT31;67756;51.982;5.648;2023-02-21T00:38:23;11.5;72.5
78463;SHT31;67756;51.982;5.648;2023-02-21T00:41:09;11.5;72.4
78463;SHT31;67756;51.982;5.648;2023-02-21T00:43:55;11.6;72.3
78463;SHT31;67756;51.982;5.648;2023-02-21T00:46:41;11.6;72.2
78463;SHT31;67756;51.982;5.648;2023-02-21T00:49:27;11.6;72.3
78463;SHT31;67756;51.982;5.648;2023-02-21T00:52:12;11.5;72.3
78463;SHT31;67756;51.982;5.648;2023-02-21T00:54:58;11.5;72.3
78463;SHT31;67756;51.982;5.648;2023-02-21T00:57:44;11.5;72.2
78463;SHT31;67756;51.982;5.648;2023-02-21T01:00:30;11.5;72.4
78463;SHT31;67756;51.982;5.648;2023-02-21T01:03:16;11.5;72.3
78463;SHT31;67756;51.982;5.648;2023-02-21T01:06:01;11.5;72.5
78463;SHT31;67756;51.982;5.648;2023-02-21T01:08:47;11.5;72.6
78463;SHT31;67756;51.982;5.648;2023-02-21T01:11:33;11.5;72.9
78463;SHT31;67756;51.982;5.648;2023-02-21T01:14:19;11.5;72.9
78463;SHT31;67756;51.982;5.648;2023-02-21T01:17:06;11.5;72.9
78463;SHT31;67756;51.982;5.648;2023-02-21T01:19:52;11.5;72.7
78463;SHT31;67756;51.982;5.648;2023-02-21T01:22:38;11.5;72.6
78463;SHT31;67756;51.982;5.648;2023-02-21T01:25:24;11.5;72.5
78463;SHT31;67756;51.982;5.648;2023-02-21T01:28:09;11.5;72.5
78463;SHT31;67756;51.982;5.648;2023-02-21T01:30:55;11.5;72.5
78463;SHT31;67756;51.982;5.648;2023-02-21T01:33:41;11.5;72.6
78463;SHT31;67756;51.982;5.648;2023-02-21T01:36:27;11.5;72.7
78463;SHT31;67756;51.982;5.648;2023-02-21T01:39:14;11.5;72.7
78463;SHT31;67756;51.982;5.648;2023-02-21T01:42:00;11.5;72.6
78463;SHT31;67756;51.982;5.648;2023-02-21T01:44:47;11.5;72.6
78463;SHT31;67756;51.982;5.648;2023-02-21T01:47:34;11.5;72.7
78463;SHT31;67756;51.982;5.648;2023-02-21T01:50:22;11.5;72.8
78463;SHT31;67756;51.982;5.648;2023-02-21T01:53:18;11.5;72.9
78463;SHT31;67756;51.982;5.648;2023-02-21T01:56:05;11.5;73.0
78463;SHT31;67756;51.982;5.648;2023-02-21T01:58:53;11.5;72.9
78463;SHT31;67756;51.982;5.648;2023-02-21T02:01:50;11.5;73.0
78463;SHT31;67756;51.982;5.648;2023-02-21T02:04:38;11.5;73.0
78463;SHT31;67756;51.982;5.648;2023-02-21T02:07:25;11.5;73.0
78463;SHT31;67756;51.982;5.648;2023-02-21T02:10:14;11.5;73.2
78463;SHT31;67756;51.982;5.648;2023-02-21T02:13:21;11.5;73.2
78463;SHT31;67756;51.982;5.648;2023-02-21T02:15:58;11.5;73.1
78463;SHT31;67756;51.982;5.648;2023-02-21T02:19:04;11.5;73.0
78463;SHT31;67756;51.982;5.648;2023-02-21T02:22:02;11.5;73.3
78463;SHT31;67756;51.982;5.648;2023-02-21T02:24:59;11.5;73.2
78463;SHT31;67756;51.982;5.648;2023-02-21T02:29:27;11.5;73.2
78463;SHT31;67756;51.982;5.648;2023-02-21T02:32:51;11.5;73.1
78463;SHT31;67756;51.982;5.648;2023-02-21T02:35:28;11.5;73.1
78463;SHT31;67756;51.982;5.648;2023-02-21T02:38:04;11.5;73.1
78463;SHT31;67756;51.982;5.648;2023-02-21T02:40:44;11.5;73.1
78463;SHT31;67756;51.982;5.648;2023-02-21T02:43:21;11.5;73.1
78463;SHT31;67756;51.982;5.648;2023-02-21T02:45:57;11.5;73.1
78463;SHT31;67756;51.982;5.648;2023-02-21T02:48:32;11.5;73.2
78463;SHT31;67756;51.982;5.648;2023-02-21T02:51:06;11.5;73.2
78463;SHT31;67756;51.982;5.648;2023-02-21T02:53:36;11.6;73.5
78463;SHT31;67756;51.982;5.648;2023-02-21T02:56:07;11.6;72.9
78463;SHT31;67756;51.982;5.648;2023-02-21T02:58:41;11.6;72.7
78463;SHT31;67756;51.982;5.648;2023-02-21T03:01:36;11.6;72.4
78463;SHT31;67756;51.982;5.648;2023-02-21T03:04:19;11.6;72.4
78463;SHT31;67756;51.982;5.648;2023-02-21T03:07:01;11.6;72.4
78463;SHT31;67756;51.982;5.648;2023-02-21T03:09:42;11.6;72.7
78463;SHT31;67756;51.982;5.648;2023-02-21T03:12:23;11.6;72.7
78463;SHT31;67756;51.982;5.648;2023-02-21T03:15:02;11.5;72.9
78463;SHT31;67756;51.982;5.648;2023-02-21T03:17:41;11.5;73.0
78463;SHT31;67756;51.982;5.648;2023-02-21T03:20:14;11.5;73.2
78463;SHT31;67756;51.982;5.648;2023-02-21T03:22:45;11.5;73.3
78463;SHT31;67756;51.982;5.648;2023-02-21T03:25:17;11.5;73.4
78463;SHT31;67756;51.982;5.648;2023-02-21T03:27:50;11.4;73.5
78463;SHT31;67756;51.982;5.648;2023-02-21T03:30:21;11.4;73.6
78463;SHT31;67756;51.982;5.648;2023-02-21T03:32:52;11.4;74.1
78463;SHT31;67756;51.982;5.648;2023-02-21T03:35:26;11.5;73.6
78463;SHT31;67756;51.982;5.648;2023-02-21T03:37:58;11.5;73.7
78463;SHT31;67756;51.982;5.648;2023-02-21T03:40:30;11.4;73.6
78463;SHT31;67756;51.982;5.648;2023-02-21T03:43:02;11.4;73.7
78463;SHT31;67756;51.982;5.648;2023-02-21T03:45:33;11.4;73.6
78463;SHT31;67756;51.982;5.648;2023-02-21T03:48:03;11.4;73.8
78463;SHT31;67756;51.982;5.648;2023-02-21T03:50:33;11.4;74.0
78463;SHT31;67756;51.982;5.648;2023-02-21T03:53:03;11.4;73.9
78463;SHT31;67756;51.982;5.648;2023-02-21T03:55:33;11.4;74.0
78463;SHT31;67756;51.982;5.648;2023-02-21T03:58:02;11.4;74.0
78463;SHT31;67756;51.982;5.648;2023-02-21T04:00:32;11.4;74.1
78463;SHT31;67756;51.982;5.648;2023-02-21T04:03:01;11.4;74.1
78463;SHT31;67756;51.982;5.648;2023-02-21T04:05:31;11.4;74.2
78463;SHT31;67756;51.982;5.648;2023-02-21T04:08:00;11.3;74.3
78463;SHT31;67756;51.982;5.648;2023-02-21T04:10:30;11.3;74.2
78463;SHT31;67756;51.982;5.648;2023-02-21T04:12:59;11.3;74.4
78463;SHT31;67756;51.982;5.648;2023-02-21T04:15:29;11.3;74.4
78463;SHT31;67756;51.982;5.648;2023-02-21T04:17:58;11.4;74.2
78463;SHT31;67756;51.982;5.648;2023-02-21T04:20:28;11.4;74.2
78463;SHT31;67756;51.982;5.648;2023-02-21T04:22:57;11.3;74.3
78463;SHT31;67756;51.982;5.648;2023-02-21T04:25:27;11.3;74.2
78463;SHT31;67756;51.982;5.648;2023-02-21T04:27:56;11.4;74.3
78463;SHT31;67756;51.982;5.648;2023-02-21T04:30:25;11.4;74.2
78463;SHT31;67756;51.982;5.648;2023-02-21T04:32:55;11.4;74.1
78463;SHT31;67756;51.982;5.648;2023-02-21T04:35:24;11.4;74.0
78463;SHT31;67756;51.982;5.648;2023-02-21T04:37:54;11.4;73.8
78463;SHT31;67756;51.982;5.648;2023-02-21T04:40:23;11.4;73.8
78463;SHT31;67756;51.982;5.648;2023-02-21T04:42:53;11.4;73.5
78463;SHT31;67756;51.982;5.648;2023-02-21T04:45:22;11.4;73.7
78463;SHT31;67756;51.982;5.648;2023-02-21T04:47:52;11.4;73.8
78463;SHT31;67756;51.982;5.648;2023-02-21T04:50:21;11.4;73.7
78463;SHT31;67756;51.982;5.648;2023-02-21T04:52:50;11.4;73.7
78463;SHT31;67756;51.982;5.648;2023-02-21T04:55:20;11.4;73.7
78463;SHT31;67756;51.982;5.648;2023-02-21T04:57:52;11.4;73.9
78463;SHT31;67756;51.982;5.648;2023-02-21T05:00:21;11.4;74.0
78463;SHT31;67756;51.982;5.648;2023-02-21T05:02:51;11.4;74.0
78463;SHT31;67756;51.982;5.648;2023-02-21T05:05:21;11.4;74.0
78463;SHT31;67756;51.982;5.648;2023-02-21T05:07:52;11.4;74.3
78463;SHT31;67756;51.982;5.648;2023-02-21T05:10:22;11.4;74.2
78463;SHT31;67756;51.982;5.648;2023-02-21T05:12:52;11.4;74.2
78463;SHT31;67756;51.982;5.648;2023-02-21T05:15:23;11.4;74.1
78463;SHT31;67756;51.982;5.648;2023-02-21T05:17:53;11.4;74.1
78463;SHT31;67756;51.982;5.648;2023-02-21T05:20:22;11.4;74.4
78463;SHT31;67756;51.982;5.648;2023-02-21T05:22:51;11.4;74.5
78463;SHT31;67756;51.982;5.648;2023-02-21T05:25:22;11.4;74.6
78463;SHT31;67756;51.982;5.648;2023-02-21T05:27:53;11.4;74.3
78463;SHT31;67756;51.982;5.648;2023-02-21T05:30:22;11.4;74.2
78463;SHT31;67756;51.982;5.648;2023-02-21T05:32:54;11.5;74.3
78463;SHT31;67756;51.982;5.648;2023-02-21T05:35:23;11.5;73.8
78463;SHT31;67756;51.982;5.648;2023-02-21T05:37:53;11.5;73.8
78463;SHT31;67756;51.982;5.648;2023-02-21T05:40:22;11.5;73.7
78463;SHT31;67756;51.982;5.648;2023-02-21T05:42:52;11.5;73.7
78463;SHT31;67756;51.982;5.648;2023-02-21T05:45:21;11.5;73.9
78463;SHT31;67756;51.982;5.648;2023-02-21T05:47:51;11.5;73.9
78463;SHT31;67756;51.982;5.648;2023-02-21T05:50:22;11.5;74.0
78463;SHT31;67756;51.982;5.648;2023-02-21T05:52:52;11.5;74.0
78463;SHT31;67756;51.982;5.648;2023-02-21T05:55:22;11.5;74.2
78463;SHT31;67756;51.982;5.648;2023-02-21T05:57:52;11.5;74.1
78463;SHT31;67756;51.982;5.648;2023-02-21T06:00:25;11.5;74.2
78463;SHT31;67756;51.982;5.648;2023-02-21T06:02:55;11.5;74.2
78463;SHT31;67756;51.982;5.648;2023-02-21T06:05:24;11.4;74.3
78463;SHT31;67756;51.982;5.648;2023-02-21T06:07:54;11.5;74.4
78463;SHT31;67756;51.982;5.648;2023-02-21T06:10:23;11.5;74.6
78463;SHT31;67756;51.982;5.648;2023-02-21T06:12:53;11.6;74.3
78463;SHT31;67756;51.982;5.648;2023-02-21T06:15:22;11.6;73.9
78463;SHT31;67756;51.982;5.648;2023-02-21T06:17:52;11.6;73.7
78463;SHT31;67756;51.982;5.648;2023-02-21T06:20:21;11.6;73.6
78463;SHT31;67756;51.982;5.648;2023-02-21T06:22:51;11.6;73.6
78463;SHT31;67756;51.982;5.648;2023-02-21T06:25:20;11.6;74.0
78463;SHT31;67756;51.982;5.648;2023-02-21T06:27:50;11.6;73.8
78463;SHT31;67756;51.982;5.648;2023-02-21T06:30:20;11.6;73.9
78463;SHT31;67756;51.982;5.648;2023-02-21T06:32:49;11.5;73.8
78463;SHT31;67756;51.982;5.648;2023-02-21T06:35:18;11.5;73.9
78463;SHT31;67756;51.982;5.648;2023-02-21T06:37:48;11.5;74.1
78463;SHT31;67756;51.982;5.648;2023-02-21T06:40:17;11.5;74.2
78463;SHT31;67756;51.982;5.648;2023-02-21T06:42:47;11.4;74.3
78463;SHT31;67756;51.982;5.648;2023-02-21T06:45:17;11.4;74.6
78463;SHT31;67756;51.982;5.648;2023-02-21T06:47:46;11.4;74.7
78463;SHT31;67756;51.982;5.648;2023-02-21T06:50:16;11.4;75.0
78463;SHT31;67756;51.982;5.648;2023-02-21T06:52:46;11.4;74.7
78463;SHT31;67756;51.982;5.648;2023-02-21T06:55:20;11.4;74.7
78463;SHT31;67756;51.982;5.648;2023-02-21T06:57:51;11.4;74.8
78463;SHT31;67756;51.982;5.648;2023-02-21T07:00:21;11.3;74.9
78463;SHT31;67756;51.982;5.648;2023-02-21T07:02:53;11.3;75.0
78463;SHT31;67756;51.982;5.648;2023-02-21T07:05:22;11.3;75.1
78463;SHT31;67756;51.982;5.648;2023-02-21T07:07:52;11.3;75.3
78463;SHT31;67756;51.982;5.648;2023-02-21T07:10:21;11.3;75.3
78463;SHT31;67756;51.982;5.648;2023-02-21T07:12:51;11.3;75.4
78463;SHT31;67756;51.982;5.648;2023-02-21T07:15:20;11.2;75.4
78463;SHT31;67756;51.982;5.648;2023-02-21T07:17:50;11.2;75.5
78463;SHT31;67756;51.982;5.648;2023-02-21T07:20:19;11.2;75.7
78463;SHT31;67756;51.982;5.648;2023-02-21T07:22:49;11.2;75.7
78463;SHT31;67756;51.982;5.648;2023-02-21T07:25:20;11.2;75.8
78463;SHT31;67756;51.982;5.648;2023-02-21T07:27:50;11.2;75.8
78463;SHT31;67756;51.982;5.648;2023-02-21T07:30:23;11.2;75.8
78463;SHT31;67756;51.982;5.648;2023-02-21T07:32:52;11.2;75.8
78463;SHT31;67756;51.982;5.648;2023-02-21T07:35:21;11.3;75.6
78463;SHT31;67756;51.982;5.648;2023-02-21T07:37:51;11.3;75.6
78463;SHT31;67756;51.982;5.648;2023-02-21T07:40:20;11.3;75.7
78463;SHT31;67756;51.982;5.648;2023-02-21T07:42:50;11.3;75.7
78463;SHT31;67756;51.982;5.648;2023-02-21T07:45:19;11.3;75.8
78463;SHT31;67756;51.982;5.648;2023-02-21T07:47:49;11.3;75.8
78463;SHT31;67756;51.982;5.648;2023-02-21T07:50:19;11.3;75.7
78463;SHT31;67756;51.982;5.648;2023-02-21T07:52:50;11.3;75.5
78463;SHT31;67756;51.982;5.648;2023-02-21T07:55:21;11.3;75.4
78463;SHT31;67756;51.982;5.648;2023-02-21T07:57:51;11.3;75.3
78463;SHT31;67756;51.982;5.648;2023-02-21T08:00:21;11.3;75.3
78463;SHT31;67756;51.982;5.648;2023-02-21T08:02:52;11.3;75.5
78463;SHT31;67756;51.982;5.648;2023-02-21T08:05:24;11.3;75.4
78463;SHT31;67756;51.982;5.648;2023-02-21T08:07:53;11.3;75.6
78463;SHT31;67756;51.982;5.648;2023-02-21T08:10:26;11.4;75.4
78463;SHT31;67756;51.982;5.648;2023-02-21T08:12:55;11.4;75.1
78463;SHT31;67756;51.982;5.648;2023-02-21T08:15:25;11.4;75.0
78463;SHT31;67756;51.982;5.648;2023-02-21T08:17:57;11.4;74.9
78463;SHT31;67756;51.982;5.648;2023-02-21T08:20:27;11.4;75.0
78463;SHT31;67756;51.982;5.648;2023-02-21T08:22:57;11.3;75.1
78463;SHT31;67756;51.982;5.648;2023-02-21T08:25:26;11.3;75.2
78463;SHT31;67756;51.982;5.648;2023-02-21T08:27:55;11.3;75.1
78463;SHT31;67756;51.982;5.648;2023-02-21T08:30:25;11.3;75.3
78463;SHT31;67756;51.982;5.648;2023-02-21T08:32:55;11.3;75.3
78463;SHT31;67756;51.982;5.648;2023-02-21T08:35:24;11.3;75.4
78463;SHT31;67756;51.982;5.648;2023-02-21T08:37:54;11.3;75.7
78463;SHT31;67756;51.982;5.648;2023-02-21T08:40:30;11.3;75.8
78463;SHT31;67756;51.982;5.648;2023-02-21T08:43:01;11.3;75.6
78463;SHT31;67756;51.982;5.648;2023-02-21T08:45:31;11.3;75.8
78463;SHT31;67756;51.982;5.648;2023-02-21T08:48:02;11.3;75.6
78463;SHT31;67756;51.982;5.648;2023-02-21T08:50:32;11.3;75.9
78463;SHT31;67756;51.982;5.648;2023-02-21T08:53:01;11.4;75.7
78463;SHT31;67756;51.982;5.648;2023-02-21T08:55:30;11.4;75.5
78463;SHT31;67756;51.982;5.648;2023-02-21T08:58:00;11.4;75.5
78463;SHT31;67756;51.982;5.648;2023-02-21T09:00:31;11.4;75.5
78463;SHT31;67756;51.982;5.648;2023-02-21T09:03:01;11.4;75.4
78463;SHT31;67756;51.982;5.648;2023-02-21T09:05:31;11.4;75.8
78463;SHT31;67756;51.982;5.648;2023-02-21T09:08:00;11.4;75.9
78463;SHT31;67756;51.982;5.648;2023-02-21T09:10:32;11.5;75.5
78463;SHT31;67756;51.982;5.648;2023-02-21T09:13:03;11.5;75.1
78463;SHT31;67756;51.982;5.648;2023-02-21T09:15:33;11.5;75.3
78463;SHT31;67756;51.982;5.648;2023-02-21T09:18:02;11.5;75.0
78463;SHT31;67756;51.982;5.648;2023-02-21T09:20:33;11.5;75.1
78463;SHT31;67756;51.982;5.648;2023-02-21T09:23:04;11.5;75.1
78463;SHT31;67756;51.982;5.648;2023-02-21T09:25:33;11.6;74.9
78463;SHT31;67756;51.982;5.648;2023-02-21T09:28:04;11.6;74.9
78463;SHT31;67756;51.982;5.648;2023-02-21T09:30:35;11.6;75.0
78463;SHT31;67756;51.982;5.648;2023-02-21T09:33:04;11.7;74.7
78463;SHT31;67756;51.982;5.648;2023-02-21T09:35:34;11.8;74.1
78463;SHT31;67756;51.982;5.648;2023-02-21T09:38:05;11.8;74.1
78463;SHT31;67756;51.982;5.648;2023-02-21T09:40:40;11.9;73.8
78463;SHT31;67756;51.982;5.648;2023-02-21T09:43:16;11.9;73.8
78463;SHT31;67756;51.982;5.648;2023-02-21T09:45:50;11.9;73.6
78463;SHT31;67756;51.982;5.648;2023-02-21T09:48:22;11.9;73.6
78463;SHT31;67756;51.982;5.648;2023-02-21T09:50:57;11.9;73.3
78463;SHT31;67756;51.982;5.648;2023-02-21T09:53:29;11.9;73.6
78463;SHT31;67756;51.982;5.648;2023-02-21T09:56:05;11.9;73.9
78463;SHT31;67756;51.982;5.648;2023-02-21T09:58:41;11.9;74.2
78463;SHT31;67756;51.982;5.648;2023-02-21T10:01:22;11.9;74.0
78463;SHT31;67756;51.982;5.648;2023-02-21T10:04:04;11.9;73.9
78463;SHT31;67756;51.982;5.648;2023-02-21T10:06:51;12.0;73.7
78463;SHT31;67756;51.982;5.648;2023-02-21T10:09:37;12.0;73.7
78463;SHT31;67756;51.982;5.648;2023-02-21T10:12:15;12.0;73.6
78463;SHT31;67756;51.982;5.648;2023-02-21T10:15:14;12.0;73.2
78463;SHT31;67756;51.982;5.648;2023-02-21T10:17:55;12.0;73.1
78463;SHT31;67756;51.982;5.648;2023-02-21T10:20:31;12.0;73.1
78463;SHT31;67756;51.982;5.648;2023-02-21T10:23:13;12.0;73.5
78463;SHT31;67756;51.982;5.648;2023-02-21T10:25:45;12.0;73.4
78463;SHT31;67756;51.982;5.648;2023-02-21T10:28:19;12.0;73.6
78463;SHT31;67756;51.982;5.648;2023-02-21T10:30:52;12.0;73.3
78463;SHT31;67756;51.982;5.648;2023-02-21T10:33:24;12.0;73.1
78463;SHT31;67756;51.982;5.648;2023-02-21T10:35:53;11.9;73.4
78463;SHT31;67756;51.982;5.648;2023-02-21T10:38:25;11.9;73.5
78463;SHT31;67756;51.982;5.648;2023-02-21T10:40:57;11.9;73.4
78463;SHT31;67756;51.982;5.648;2023-02-21T10:43:33;11.8;73.8
78463;SHT31;67756;51.982;5.648;2023-02-21T10:46:09;11.8;74.0
78463;SHT31;67756;51.982;5.648;2023-02-21T10:48:44;11.7;74.0
78463;SHT31;67756;51.982;5.648;2023-02-21T10:51:16;11.7;74.5
78463;SHT31;67756;51.982;5.648;2023-02-21T10:53:47;11.8;74.3
78463;SHT31;67756;51.982;5.648;2023-02-21T10:56:23;11.8;74.1
78463;SHT31;67756;51.982;5.648;2023-02-21T10:58:56;11.8;74.1
78463;SHT31;67756;51.982;5.648;2023-02-21T11:01:36;11.8;74.3
78463;SHT31;67756;51.982;5.648;2023-02-21T11:04:25;11.8;74.0
78463;SHT31;67756;51.982;5.648;2023-02-21T11:06:58;11.8;74.3
78463;SHT31;67756;51.982;5.648;2023-02-21T11:09:34;11.8;74.7
78463;SHT31;67756;51.982;5.648;2023-02-21T11:12:23;11.9;74.7
78463;SHT31;67756;51.982;5.648;2023-02-21T11:16:46;11.9;74.1
78463;SHT31;67756;51.982;5.648;2023-02-21T11:19:22;12.0;73.5
78463;SHT31;67756;51.982;5.648;2023-02-21T11:21:55;12.0;73.4
78463;SHT31;67756;51.982;5.648;2023-02-21T11:24:27;12.1;73.5
78463;SHT31;67756;51.982;5.648;2023-02-21T11:26:57;12.1;73.3
78463;SHT31;67756;51.982;5.648;2023-02-21T11:29:27;12.1;73.0
78463;SHT31;67756;51.982;5.648;2023-02-21T11:31:58;12.1;73.0
78463;SHT31;67756;51.982;5.648;2023-02-21T11:34:33;12.1;72.7
78463;SHT31;67756;51.982;5.648;2023-02-21T11:37:03;12.1;72.7
78463;SHT31;67756;51.982;5.648;2023-02-21T11:39:34;12.1;72.5
78463;SHT31;67756;51.982;5.648;2023-02-21T11:42:24;12.1;72.7
78463;SHT31;67756;51.982;5.648;2023-02-21T11:45:13;12.1;72.8
78463;SHT31;67756;51.982;5.648;2023-02-21T11:47:55;12.0;73.3
78463;SHT31;67756;51.982;5.648;2023-02-21T11:50:29;12.0;73.6
78463;SHT31;67756;51.982;5.648;2023-02-21T11:53:14;12.0;73.4
78463;SHT31;67756;51.982;5.648;2023-02-21T11:55:41;12.0;73.7
78463;SHT31;67756;51.982;5.648;2023-02-21T11:58:24;12.0;73.8
78463;SHT31;67756;51.982;5.648;2023-02-21T12:01:00;12.0;74.1
78463;SHT31;67756;51.982;5.648;2023-02-21T12:03:55;12.0;74.1
78463;SHT31;67756;51.982;5.648;2023-02-21T12:06:37;12.0;73.9
78463;SHT31;67756;51.982;5.648;2023-02-21T12:09:15;12.0;74.3
78463;SHT31;67756;51.982;5.648;2023-02-21T12:11:58;12.0;74.2
78463;SHT31;67756;51.982;5.648;2023-02-21T12:14:42;12.0;74.0
78463;SHT31;67756;51.982;5.648;2023-02-21T12:17:31;12.0;74.1
78463;SHT31;67756;51.982;5.648;2023-02-21T12:20:20;12.0;74.0
78463;SHT31;67756;51.982;5.648;2023-02-21T12:23:03;12.0;73.1
78463;SHT31;67756;51.982;5.648;2023-02-21T12:25:46;12.0;73.8
78463;SHT31;67756;51.982;5.648;2023-02-21T12:28:30;11.9;74.4
78463;SHT31;67756;51.982;5.648;2023-02-21T12:31:23;11.9;74.2
78463;SHT31;67756;51.982;5.648;2023-02-21T12:34:08;11.9;74.0
78463;SHT31;67756;51.982;5.648;2023-02-21T12:37:13;11.8;73.9
78463;SHT31;67756;51.982;5.648;2023-02-21T12:40:02;11.8;74.4
78463;SHT31;67756;51.982;5.648;2023-02-21T12:42:47;11.7;75.1
78463;SHT31;67756;51.982;5.648;2023-02-21T12:45:44;11.6;75.3
78463;SHT31;67756;51.982;5.648;2023-02-21T12:48:28;11.6;75.3
78463;SHT31;67756;51.982;5.648;2023-02-21T12:51:02;11.5;75.9
78463;SHT31;67756;51.982;5.648;2023-02-21T12:53:39;11.5;75.7
78463;SHT31;67756;51.982;5.648;2023-02-21T12:56:15;11.5;75.9
78463;SHT31;67756;51.982;5.648;2023-02-21T12:58:51;11.5;76.3
78463;SHT31;67756;51.982;5.648;2023-02-21T13:01:25;11.5;76.0
78463;SHT31;67756;51.982;5.648;2023-02-21T13:04:09;11.5;76.2
78463;SHT31;67756;51.982;5.648;2023-02-21T13:06:47;11.5;76.3
78463;SHT31;67756;51.982;5.648;2023-02-21T13:09:24;11.5;76.2
78463;SHT31;67756;51.982;5.648;2023-02-21T13:12:02;11.5;76.5
78463;SHT31;67756;51.982;5.648;2023-02-21T13:14:35;11.5;76.6
78463;SHT31;67756;51.982;5.648;2023-02-21T13:17:08;11.5;76.4
78463;SHT31;67756;51.982;5.648;2023-02-21T13:19:42;11.5;76.7
78463;SHT31;67756;51.982;5.648;2023-02-21T13:25:17;11.5;76.7
78463;SHT31;67756;51.982;5.648;2023-02-21T13:28:02;11.5;76.2
78463;SHT31;67756;51.982;5.648;2023-02-21T13:30:43;11.5;76.7
78463;SHT31;67756;51.982;5.648;2023-02-21T13:33:27;11.5;76.2
78463;SHT31;67756;51.982;5.648;2023-02-21T13:36:00;11.5;76.5
78463;SHT31;67756;51.982;5.648;2023-02-21T13:38:31;11.5;76.3
78463;SHT31;67756;51.982;5.648;2023-02-21T13:41:07;11.5;76.2
78463;SHT31;67756;51.982;5.648;2023-02-21T13:43:49;11.5;76.2
78463;SHT31;67756;51.982;5.648;2023-02-21T13:46:59;11.5;76.3
78463;SHT31;67756;51.982;5.648;2023-02-21T13:49:44;11.5;76.4
78463;SHT31;67756;51.982;5.648;2023-02-21T13:52:36;11.5;76.3
78463;SHT31;67756;51.982;5.648;2023-02-21T13:56:10;11.5;76.7
78463;SHT31;67756;51.982;5.648;2023-02-21T13:58:32;11.5;76.5
78463;SHT31;67756;51.982;5.648;2023-02-21T14:01:38;11.5;76.8
78463;SHT31;67756;51.982;5.648;2023-02-21T14:03:59;11.5;76.0
78463;SHT31;67756;51.982;5.648;2023-02-21T14:06:34;11.5;75.9
78463;SHT31;67756;51.982;5.648;2023-02-21T14:09:16;11.5;75.9
78463;SHT31;67756;51.982;5.648;2023-02-21T14:11:49;11.5;76.2
78463;SHT31;67756;51.982;5.648;2023-02-21T14:14:24;11.5;76.0
78463;SHT31;67756;51.982;5.648;2023-02-21T14:16:59;11.4;76.0
78463;SHT31;67756;51.982;5.648;2023-02-21T14:19:36;11.4;76.0
78463;SHT31;67756;51.982;5.648;2023-02-21T14:22:13;11.4;76.2
78463;SHT31;67756;51.982;5.648;2023-02-21T14:24:46;11.4;76.0
78463;SHT31;67756;51.982;5.648;2023-02-21T14:27:35;11.4;76.3
78463;SHT31;67756;51.982;5.648;2023-02-21T14:30:26;11.3;76.7
78463;SHT31;67756;51.982;5.648;2023-02-21T14:32:59;11.3;76.7
78463;SHT31;67756;51.982;5.648;2023-02-21T14:35:34;11.3;76.9
78463;SHT31;67756;51.982;5.648;2023-02-21T14:38:06;11.3;76.5
78463;SHT31;67756;51.982;5.648;2023-02-21T14:40:53;11.4;76.6
78463;SHT31;67756;51.982;5.648;2023-02-21T14:43:36;11.4;76.5
78463;SHT31;67756;51.982;5.648;2023-02-21T14:46:27;11.4;76.3
78463;SHT31;67756;51.982;5.648;2023-02-21T14:52:24;11.4;76.0
78463;SHT31;67756;51.982;5.648;2023-02-21T14:55:33;11.4;76.0
78463;SHT31;67756;51.982;5.648;2023-02-21T15:02:30;11.5;75.8
78463;SHT31;67756;51.982;5.648;2023-02-21T15:05:13;11.5;75.6
78463;SHT31;67756;51.982;5.648;2023-02-21T15:07:55;11.5;75.5
78463;SHT31;67756;51.982;5.648;2023-02-21T15:10:27;11.5;75.4
78463;SHT31;67756;51.982;5.648;2023-02-21T15:13:00;11.5;74.9
78463;SHT31;67756;51.982;5.648;2023-02-21T15:15:33;11.6;74.9
78463;SHT31;67756;51.982;5.648;2023-02-21T15:18:06;11.6;74.7
78463;SHT31;67756;51.982;5.648;2023-02-21T15:20:38;11.6;74.8
78463;SHT31;67756;51.982;5.648;2023-02-21T15:23:13;11.6;74.6
78463;SHT31;67756;51.982;5.648;2023-02-21T15:25:54;11.6;75.0
78463;SHT31;67756;51.982;5.648;2023-02-21T15:28:26;11.6;74.7
78463;SHT31;67756;51.982;5.648;2023-02-21T15:31:02;11.6;74.3
78463;SHT31;67756;51.982;5.648;2023-02-21T15:33:36;11.6;74.2
78463;SHT31;67756;51.982;5.648;2023-02-21T15:36:15;11.6;74.2
78463;SHT31;67756;51.982;5.648;2023-02-21T15:38:49;11.7;74.1
78463;SHT31;67756;51.982;5.648;2023-02-21T15:41:26;11.7;73.8
78463;SHT31;67756;51.982;5.648;2023-02-21T15:44:02;11.7;73.9
78463;SHT31;67756;51.982;5.648;2023-02-21T15:46:41;11.7;73.7
78463;SHT31;67756;51.982;5.648;2023-02-21T15:49:16;11.6;73.8
78463;SHT31;67756;51.982;5.648;2023-02-21T15:51:48;11.6;74.0
78463;SHT31;67756;51.982;5.648;2023-02-21T15:54:27;11.6;74.2
78463;SHT31;67756;51.982;5.648;2023-02-21T15:57:20;11.6;74.0
78463;SHT31;67756;51.982;5.648;2023-02-21T16:00:07;11.6;74.6
78463;SHT31;67756;51.982;5.648;2023-02-21T16:02:30;11.7;74.4
78463;SHT31;67756;51.982;5.648;2023-02-21T16:04:59;11.8;73.7
78463;SHT31;67756;51.982;5.648;2023-02-21T16:07:32;11.8;73.7
78463;SHT31;67756;51.982;5.648;2023-02-21T16:10:06;11.9;73.4
78463;SHT31;67756;51.982;5.648;2023-02-21T16:12:38;11.9;73.5
78463;SHT31;67756;51.982;5.648;2023-02-21T16:15:21;11.9;73.2
78463;SHT31;67756;51.982;5.648;2023-02-21T16:17:57;11.9;72.7
78463;SHT31;67756;51.982;5.648;2023-02-21T16:20:32;11.9;73.2
78463;SHT31;67756;51.982;5.648;2023-02-21T16:23:23;11.9;73.1
78463;SHT31;67756;51.982;5.648;2023-02-21T16:25:58;11.9;72.9
78463;SHT31;67756;51.982;5.648;2023-02-21T16:28:30;11.9;72.7
78463;SHT31;67756;51.982;5.648;2023-02-21T16:31:02;11.9;72.3
78463;SHT31;67756;51.982;5.648;2023-02-21T16:33:33;11.9;72.7
78463;SHT31;67756;51.982;5.648;2023-02-21T16:36:08;11.9;72.7
78463;SHT31;67756;51.982;5.648;2023-02-21T16:38:38;11.9;72.8
78463;SHT31;67756;51.982;5.648;2023-02-21T16:41:11;11.9;73.2
78463;SHT31;67756;51.982;5.648;2023-02-21T16:43:43;11.9;73.4
78463;SHT31;67756;51.982;5.648;2023-02-21T16:46:13;11.9;72.9
78463;SHT31;67756;51.982;5.648;2023-02-21T16:48:44;11.9;73.0
78463;SHT31;67756;51.982;5.648;2023-02-21T16:51:13;11.9;73.0
78463;SHT31;67756;51.982;5.648;2023-02-21T16:53:46;11.9;72.8
78463;SHT31;67756;51.982;5.648;2023-02-21T16:56:16;11.9;71.4
78463;SHT31;67756;51.982;5.648;2023-02-21T16:58:49;11.9;69.9
78463;SHT31;67756;51.982;5.648;2023-02-21T17:01:27;11.9;69.7
78463;SHT31;67756;51.982;5.648;2023-02-21T17:03:58;11.9;70.1
78463;SHT31;67756;51.982;5.648;2023-02-21T17:06:32;11.9;69.7
78463;SHT31;67756;51.982;5.648;2023-02-21T17:09:02;11.9;69.9
78463;SHT31;67756;51.982;5.648;2023-02-21T17:11:34;11.8;70.7
78463;SHT31;67756;51.982;5.648;2023-02-21T17:14:03;11.8;70.8
78463;SHT31;67756;51.982;5.648;2023-02-21T17:16:32;11.8;70.8